Flight Track Log - Related Links

Times and Time Zones

All times are in EDT time to prevent confusion due to time zone crossing. See the UCA3597 flight status page for this flight to view local times or setup timezone preferences in your user account.

Time Position Orientation Groundspeed Altitude Reporting Facility
EDT Latitude Longitude Course Direction KTS MPH feet Rate Location/Type
Fri 07:19:24 PM 42.2169 -76.0794 212° Southwest 133 153 5,400  Level New York Center
Fri 07:20:24 PM 42.1736 -76.1153 212° Southwest 153 176 7,100 1,636 Climbing New York Center
Fri 07:21:25 PM 42.1264 -76.1506 209° Southwest 177 204 8,700 1,636 Climbing New York Center
Fri 07:22:25 PM 42.0789 -76.1886 211° Southwest 195 224 10,400 1,686 Climbing New York Center
Fri 07:23:00 PM 41.9973 -76.0803 212° Southwest  Level Estimated
Fri 07:23:26 PM 42.0311 -76.2267 211° Southwest 206 237 12,100  Level New York Center
Fri 07:24:26 PM 41.9792 -76.2697 212° Southwest 206 237 13,700 1,400 Climbing New York Center
Fri 07:25:26 PM 41.9275 -76.3072 208° Southwest 211 243 14,900 1,160 Climbing New York Center
Fri 07:26:25 PM 41.8756 -76.3503 212° Southwest 221 254 16,000 600 Climbing New York Center
Fri 07:27:26 PM 41.8214 -76.3958 212° Southwest 234 269 16,100  Climbing New York Center
Fri 07:28:23 PM 41.7522 -76.4483 210° Southwest 266 306 16,000 -51 Descending New York Center
Fri 07:29:24 PM 41.6744 -76.5083 210° Southwest 295 339 16,000  Level New York Center
Fri 07:30:24 PM 41.6028 -76.5661 211° Southwest 301 346 16,000  Level New York Center
Fri 07:31:24 PM 41.5381 -76.6158 210° Southwest 301 346 16,000  Level New York Center
Fri 07:32:25 PM 41.4664 -76.6733 211° Southwest 301 346 16,000  Level New York Center
Fri 07:33:26 PM 41.3947 -76.7333 212° Southwest 307 353 16,000  Level New York Center
Fri 07:34:26 PM 41.3211 -76.7850 208° Southwest 307 353 16,000  Level New York Center
Fri 07:35:25 PM 41.2392 -76.7997 188° South 299 344 16,000  Level New York Center
Fri 07:36:25 PM 41.1467 -76.8164 188° South 299 344 16,000  Level New York Center
Fri 07:37:26 PM 41.0667 -76.8311 188° South 299 344 16,000  Level New York Center
Fri 07:38:26 PM 40.9847 -76.8458 188° South 299 344 16,000  Level New York Center
Fri 07:39:24 PM 40.9047 -76.8608 188° South 299 344 16,000  Level New York Center
Fri 07:40:24 PM 40.8225 -76.8781 189° South 291 335 16,000  Level New York Center
Fri 07:41:24 PM 40.7486 -76.8989 192° South 297 342 16,000  Level New York Center
Fri 07:42:25 PM 40.6617 -76.9239 192° South 297 342 16,000  Level New York Center
Fri 07:43:25 PM 40.5897 -76.9475 194° South 304 350 16,000  Level New York Center
Fri 07:44:24 PM 40.5008 -76.9725 192° South 303 349 16,000  Level New York Center
Fri 07:45:26 PM 40.4286 -76.9958 194° South 303 349 16,000 -98 Level New York Center
Fri 07:46:26 PM 40.3397 -77.0233 193° South 303 349 15,800 -458 Descending New York Center
Fri 07:47:24 PM 40.2675 -77.0467 194° South 303 349 15,100 -659 Descending New York Center
Fri 07:49:19 PM 40.1167 -77.1000 195° South 310 357 13,900 -651 Descending Potomac TRACON
Fri 07:50:19 PM 40.0333 -77.1167 189° South 303 349 13,200 -700 Descending Potomac TRACON
Fri 07:51:19 PM 39.9500 -77.1500 197° South 296 341 12,500 -700 Descending Potomac TRACON
Fri 07:52:19 PM 39.8667 -77.1667 189° South 295 339 11,800 -700 Descending Potomac TRACON
Fri 07:53:19 PM 39.8000 -77.2000 201° Southwest 289 333 11,100 -750 Descending Potomac TRACON
Fri 07:54:19 PM 39.7333 -77.2667 218° Southwest 287 330 10,300 -800 Descending Potomac TRACON
Fri 07:55:19 PM 39.6667 -77.3167 210° Southwest 280 322 9,500 -1,050 Descending Potomac TRACON
Fri 07:56:19 PM 39.5833 -77.3500 197° South 271 312 8,200 -1,250 Descending Potomac TRACON
Fri 07:57:19 PM 39.5167 -77.3500 180° South 268 308 7,000 -600 Descending Potomac TRACON
Fri 07:58:19 PM 39.4333 -77.3667 189° South 269 310 7,000 -400 Level Potomac TRACON
Fri 07:59:19 PM 39.3667 -77.3667 180° South 263 303 6,200 -1,000 Descending Potomac TRACON
Fri 08:00:19 PM 39.3000 -77.3667 180° South 260 299 5,000 -650 Descending Potomac TRACON
Fri 08:01:19 PM 39.2167 -77.3667 180° South 253 291 4,900 -500 Descending Potomac TRACON
Fri 08:02:19 PM 39.1500 -77.3500 169° South 248 285 4,000 -450 Descending Potomac TRACON
Fri 08:03:19 PM 39.0667 -77.3500 180° South 250 288 4,000  Level Potomac TRACON
Fri 08:04:25 PM 39.0000 -77.3500 180° South 249 287 4,000 -250 Level Potomac TRACON
Fri 08:05:19 PM 38.9333 -77.3500 180° South 251 289 3,500 -500 Descending Potomac TRACON
Fri 08:06:25 PM 38.8667 -77.3500 180° South 240 276 3,000 -714 Descending Potomac TRACON
Fri 08:07:25 PM 38.8000 -77.3667 191° South 216 249 2,000 -500 Descending Potomac TRACON
Fri 08:08:25 PM 38.8167 -77.4333 288° West 232 267 2,000 -53 Level Potomac TRACON
Fri 08:09:19 PM 38.8500 -77.4333 360° North 192 221 1,900 -579 Descending Potomac TRACON
Fri 08:10:19 PM 38.9000 -77.4333 360° North 138 159 900 -1,000 Descending Potomac TRACON
Fri 08:12:00 PM 38.9333 -77.4500 349° North  Level FlightAware Approximate
Fri 08:19:00 PM 38.9474 -77.4599 349° North  Level Estimated
Fri 08:20:00 PM 38.9474 -77.4599 349° North  Level Estimated

Login

Don't have an account? Register now (free) for customized features, flight alerts, and more!